sensor_id;sensor_type;location;lat;lon;timestamp;P1;durP1;ratioP1;P2;durP2;ratioP2
68987;SDS011;56038;46.080;11.116;2023-02-04T00:03:09;34.28;;;17.58;;
68987;SDS011;56038;46.080;11.116;2023-02-04T00:08:10;27.77;;;14.32;;
68987;SDS011;56038;46.080;11.116;2023-02-04T00:13:14;23.88;;;12.77;;
68987;SDS011;56038;46.080;11.116;2023-02-04T00:18:15;15.52;;;7.93;;
68987;SDS011;56038;46.080;11.116;2023-02-04T00:23:17;12.63;;;6.07;;
68987;SDS011;56038;46.080;11.116;2023-02-04T00:28:20;10.15;;;5.68;;
68987;SDS011;56038;46.080;11.116;2023-02-04T00:33:22;14.25;;;7.55;;
68987;SDS011;56038;46.080;11.116;2023-02-04T00:38:24;6.95;;;4.57;;
68987;SDS011;56038;46.080;11.116;2023-02-04T00:43:27;5.90;;;3.40;;
68987;SDS011;56038;46.080;11.116;2023-02-04T00:48:28;3.97;;;2.40;;
68987;SDS011;56038;46.080;11.116;2023-02-04T00:53:30;3.35;;;1.88;;
68987;SDS011;56038;46.080;11.116;2023-02-04T00:58:33;1.58;;;0.90;;
68987;SDS011;56038;46.080;11.116;2023-02-04T01:03:35;1.10;;;0.68;;
68987;SDS011;56038;46.080;11.116;2023-02-04T01:08:37;0.82;;;0.60;;
68987;SDS011;56038;46.080;11.116;2023-02-04T01:13:40;0.30;;;0.30;;
68987;SDS011;56038;46.080;11.116;2023-02-04T01:18:42;0.55;;;0.30;;
68987;SDS011;56038;46.080;11.116;2023-02-04T01:23:44;0.40;;;0.40;;
68987;SDS011;56038;46.080;11.116;2023-02-04T01:28:47;0.45;;;0.32;;
68987;SDS011;56038;46.080;11.116;2023-02-04T01:33:49;0.85;;;0.43;;
68987;SDS011;56038;46.080;11.116;2023-02-04T01:38:51;0.68;;;0.45;;
68987;SDS011;56038;46.080;11.116;2023-02-04T01:43:55;0.52;;;0.32;;
68987;SDS011;56038;46.080;11.116;2023-02-04T01:48:56;0.40;;;0.32;;
68987;SDS011;56038;46.080;11.116;2023-02-04T01:53:58;0.15;;;0.15;;
68987;SDS011;56038;46.080;11.116;2023-02-04T01:59:08;0.35;;;0.32;;
68987;SDS011;56038;46.080;11.116;2023-02-04T02:04:12;0.32;;;0.30;;
68987;SDS011;56038;46.080;11.116;2023-02-04T02:09:16;0.60;;;0.20;;
68987;SDS011;56038;46.080;11.116;2023-02-04T02:14:19;0.10;;;0.10;;
68987;SDS011;56038;46.080;11.116;2023-02-04T02:19:23;0.57;;;0.17;;
68987;SDS011;56038;46.080;11.116;2023-02-04T02:24:30;0.13;;;0.10;;
68987;SDS011;56038;46.080;11.116;2023-02-04T02:29:33;0.32;;;0.20;;
68987;SDS011;56038;46.080;11.116;2023-02-04T02:34:36;0.20;;;0.20;;
68987;SDS011;56038;46.080;11.116;2023-02-04T02:39:41;0.20;;;0.20;;
68987;SDS011;56038;46.080;11.116;2023-02-04T02:44:45;0.32;;;0.10;;
68987;SDS011;56038;46.080;11.116;2023-02-04T02:49:50;0.10;;;0.10;;
68987;SDS011;56038;46.080;11.116;2023-02-04T02:54:54;0.20;;;0.13;;
68987;SDS011;56038;46.080;11.116;2023-02-04T02:59:56;0.65;;;0.20;;
68987;SDS011;56038;46.080;11.116;2023-02-04T03:04:58;0.25;;;0.20;;
68987;SDS011;56038;46.080;11.116;2023-02-04T03:10:02;0.65;;;0.10;;
68987;SDS011;56038;46.080;11.116;2023-02-04T03:15:05;0.00;;;0.00;;
68987;SDS011;56038;46.080;11.116;2023-02-04T03:20:08;0.50;;;0.13;;
68987;SDS011;56038;46.080;11.116;2023-02-04T03:25:12;0.00;;;0.00;;
68987;SDS011;56038;46.080;11.116;2023-02-04T03:30:13;8.23;;;0.73;;
68987;SDS011;56038;46.080;11.116;2023-02-04T03:35:16;3.72;;;0.10;;
68987;SDS011;56038;46.080;11.116;2023-02-04T03:40:19;2.05;;;0.20;;
68987;SDS011;56038;46.080;11.116;2023-02-04T03:45:21;0.82;;;0.10;;
68987;SDS011;56038;46.080;11.116;2023-02-04T03:50:22;0.08;;;0.08;;
68987;SDS011;56038;46.080;11.116;2023-02-04T03:55:26;0.10;;;0.10;;
68987;SDS011;56038;46.080;11.116;2023-02-04T04:00:27;0.00;;;0.00;;
68987;SDS011;56038;46.080;11.116;2023-02-04T04:05:31;0.30;;;0.10;;
68987;SDS011;56038;46.080;11.116;2023-02-04T04:10:35;0.13;;;0.13;;
68987;SDS011;56038;46.080;11.116;2023-02-04T04:15:37;0.10;;;0.10;;
68987;SDS011;56038;46.080;11.116;2023-02-04T04:20:38;0.35;;;0.10;;
68987;SDS011;56038;46.080;11.116;2023-02-04T04:25:41;0.40;;;0.17;;
68987;SDS011;56038;46.080;11.116;2023-02-04T04:30:43;0.15;;;0.13;;
68987;SDS011;56038;46.080;11.116;2023-02-04T04:35:45;1.75;;;0.10;;
68987;SDS011;56038;46.080;11.116;2023-02-04T04:40:48;1.13;;;0.15;;
68987;SDS011;56038;46.080;11.116;2023-02-04T04:45:50;0.00;;;0.00;;
68987;SDS011;56038;46.080;11.116;2023-02-04T04:50:52;0.00;;;0.00;;
68987;SDS011;56038;46.080;11.116;2023-02-04T04:55:55;0.95;;;0.10;;
68987;SDS011;56038;46.080;11.116;2023-02-04T05:00:56;0.20;;;0.10;;
68987;SDS011;56038;46.080;11.116;2023-02-04T05:05:58;0.00;;;0.00;;
68987;SDS011;56038;46.080;11.116;2023-02-04T05:11:01;0.10;;;0.10;;
68987;SDS011;56038;46.080;11.116;2023-02-04T05:16:04;0.00;;;0.00;;
68987;SDS011;56038;46.080;11.116;2023-02-04T05:21:06;0.03;;;0.03;;
68987;SDS011;56038;46.080;11.116;2023-02-04T05:26:09;0.20;;;0.10;;
68987;SDS011;56038;46.080;11.116;2023-02-04T05:31:11;0.10;;;0.10;;
68987;SDS011;56038;46.080;11.116;2023-02-04T05:36:13;0.30;;;0.10;;
68987;SDS011;56038;46.080;11.116;2023-02-04T05:41:16;0.00;;;0.00;;
68987;SDS011;56038;46.080;11.116;2023-02-04T05:46:18;0.10;;;0.10;;
68987;SDS011;56038;46.080;11.116;2023-02-04T05:51:20;0.10;;;0.10;;
68987;SDS011;56038;46.080;11.116;2023-02-04T05:56:23;0.52;;;0.10;;
68987;SDS011;56038;46.080;11.116;2023-02-04T06:01:25;0.98;;;0.15;;
68987;SDS011;56038;46.080;11.116;2023-02-04T06:06:27;0.43;;;0.10;;
68987;SDS011;56038;46.080;11.116;2023-02-04T06:11:30;0.10;;;0.10;;
68987;SDS011;56038;46.080;11.116;2023-02-04T06:16:32;0.10;;;0.10;;
68987;SDS011;56038;46.080;11.116;2023-02-04T06:21:33;0.35;;;0.10;;
68987;SDS011;56038;46.080;11.116;2023-02-04T06:26:36;0.10;;;0.10;;
68987;SDS011;56038;46.080;11.116;2023-02-04T06:31:38;0.10;;;0.10;;
68987;SDS011;56038;46.080;11.116;2023-02-04T06:36:40;0.10;;;0.10;;
68987;SDS011;56038;46.080;11.116;2023-02-04T06:41:43;0.00;;;0.00;;
68987;SDS011;56038;46.080;11.116;2023-02-04T06:46:45;0.30;;;0.20;;
68987;SDS011;56038;46.080;11.116;2023-02-04T06:51:47;1.40;;;0.30;;
68987;SDS011;56038;46.080;11.116;2023-02-04T06:56:51;0.15;;;0.15;;
68987;SDS011;56038;46.080;11.116;2023-02-04T07:01:52;0.45;;;0.20;;
68987;SDS011;56038;46.080;11.116;2023-02-04T07:06:54;0.10;;;0.10;;
68987;SDS011;56038;46.080;11.116;2023-02-04T07:11:57;1.27;;;0.68;;
68987;SDS011;56038;46.080;11.116;2023-02-04T07:16:59;0.93;;;0.30;;
68987;SDS011;56038;46.080;11.116;2023-02-04T07:22:01;0.88;;;0.30;;
68987;SDS011;56038;46.080;11.116;2023-02-04T07:27:04;0.10;;;0.10;;
68987;SDS011;56038;46.080;11.116;2023-02-04T07:32:06;0.93;;;0.88;;
68987;SDS011;56038;46.080;11.116;2023-02-04T07:37:07;0.30;;;0.30;;
68987;SDS011;56038;46.080;11.116;2023-02-04T07:42:11;0.32;;;0.20;;
68987;SDS011;56038;46.080;11.116;2023-02-04T07:47:12;0.43;;;0.30;;
68987;SDS011;56038;46.080;11.116;2023-02-04T07:52:14;1.73;;;0.30;;
68987;SDS011;56038;46.080;11.116;2023-02-04T07:57:17;0.10;;;0.10;;
68987;SDS011;56038;46.080;11.116;2023-02-04T08:02:19;0.30;;;0.30;;
68987;SDS011;56038;46.080;11.116;2023-02-04T08:07:21;3.08;;;1.50;;
68987;SDS011;56038;46.080;11.116;2023-02-04T08:12:25;0.57;;;0.30;;
68987;SDS011;56038;46.080;11.116;2023-02-04T08:17:26;0.40;;;0.32;;
68987;SDS011;56038;46.080;11.116;2023-02-04T08:22:29;0.20;;;0.20;;
68987;SDS011;56038;46.080;11.116;2023-02-04T08:27:32;0.17;;;0.10;;
68987;SDS011;56038;46.080;11.116;2023-02-04T08:32:34;0.25;;;0.20;;
68987;SDS011;56038;46.080;11.116;2023-02-04T08:37:35;0.45;;;0.40;;
68987;SDS011;56038;46.080;11.116;2023-02-04T08:42:39;2.78;;;0.40;;
68987;SDS011;56038;46.080;11.116;2023-02-04T08:47:40;0.15;;;0.15;;
68987;SDS011;56038;46.080;11.116;2023-02-04T08:52:43;0.40;;;0.20;;
68987;SDS011;56038;46.080;11.116;2023-02-04T08:57:46;0.30;;;0.20;;
68987;SDS011;56038;46.080;11.116;2023-02-04T09:02:48;0.17;;;0.10;;
68987;SDS011;56038;46.080;11.116;2023-02-04T09:07:49;1.55;;;0.20;;
68987;SDS011;56038;46.080;11.116;2023-02-04T09:12:52;0.20;;;0.20;;
68987;SDS011;56038;46.080;11.116;2023-02-04T09:17:55;2.38;;;0.20;;
68987;SDS011;56038;46.080;11.116;2023-02-04T09:23:03;0.10;;;0.10;;
68987;SDS011;56038;46.080;11.116;2023-02-04T09:28:09;0.75;;;0.32;;
68987;SDS011;56038;46.080;11.116;2023-02-04T09:33:13;0.47;;;0.30;;
68987;SDS011;56038;46.080;11.116;2023-02-04T09:38:15;0.10;;;0.10;;
68987;SDS011;56038;46.080;11.116;2023-02-04T09:43:19;1.00;;;0.45;;
68987;SDS011;56038;46.080;11.116;2023-02-04T09:48:24;1.38;;;0.30;;
68987;SDS011;56038;46.080;11.116;2023-02-04T09:53:26;0.20;;;0.20;;
68987;SDS011;56038;46.080;11.116;2023-02-04T09:58:32;3.30;;;0.30;;
68987;SDS011;56038;46.080;11.116;2023-02-04T10:03:34;0.43;;;0.22;;
68987;SDS011;56038;46.080;11.116;2023-02-04T10:08:36;0.82;;;0.20;;
68987;SDS011;56038;46.080;11.116;2023-02-04T10:13:40;0.20;;;0.20;;
68987;SDS011;56038;46.080;11.116;2023-02-04T10:18:45;0.35;;;0.20;;
68987;SDS011;56038;46.080;11.116;2023-02-04T10:23:48;0.10;;;0.10;;
68987;SDS011;56038;46.080;11.116;2023-02-04T10:28:58;2.20;;;0.27;;
68987;SDS011;56038;46.080;11.116;2023-02-04T10:34:04;0.20;;;0.15;;
68987;SDS011;56038;46.080;11.116;2023-02-04T10:39:10;1.00;;;0.17;;
68987;SDS011;56038;46.080;11.116;2023-02-04T10:44:16;0.30;;;0.22;;
68987;SDS011;56038;46.080;11.116;2023-02-04T10:49:20;0.63;;;0.30;;
68987;SDS011;56038;46.080;11.116;2023-02-04T10:54:23;0.20;;;0.20;;
68987;SDS011;56038;46.080;11.116;2023-02-04T10:59:32;0.10;;;0.10;;
68987;SDS011;56038;46.080;11.116;2023-02-04T11:04:34;0.52;;;0.30;;
68987;SDS011;56038;46.080;11.116;2023-02-04T11:09:36;0.30;;;0.20;;
68987;SDS011;56038;46.080;11.116;2023-02-04T11:14:43;0.22;;;0.20;;
68987;SDS011;56038;46.080;11.116;2023-02-04T11:19:55;0.10;;;0.10;;
68987;SDS011;56038;46.080;11.116;2023-02-04T11:24:58;1.23;;;0.10;;
68987;SDS011;56038;46.080;11.116;2023-02-04T11:30:05;0.10;;;0.10;;
68987;SDS011;56038;46.080;11.116;2023-02-04T11:35:21;0.00;;;0.00;;
68987;SDS011;56038;46.080;11.116;2023-02-04T11:40:29;1.45;;;0.10;;
68987;SDS011;56038;46.080;11.116;2023-02-04T11:45:34;1.75;;;0.20;;
68987;SDS011;56038;46.080;11.116;2023-02-04T11:50:36;0.20;;;0.20;;
68987;SDS011;56038;46.080;11.116;2023-02-04T11:55:42;0.30;;;0.30;;
68987;SDS011;56038;46.080;11.116;2023-02-04T12:00:46;0.10;;;0.05;;
68987;SDS011;56038;46.080;11.116;2023-02-04T12:05:48;2.13;;;0.10;;
68987;SDS011;56038;46.080;11.116;2023-02-04T12:11:01;1.23;;;0.20;;
68987;SDS011;56038;46.080;11.116;2023-02-04T12:16:06;0.93;;;0.40;;
68987;SDS011;56038;46.080;11.116;2023-02-04T12:21:08;1.90;;;0.70;;
68987;SDS011;56038;46.080;11.116;2023-02-04T12:26:10;0.28;;;0.20;;
68987;SDS011;56038;46.080;11.116;2023-02-04T12:31:14;0.40;;;0.10;;
68987;SDS011;56038;46.080;11.116;2023-02-04T12:36:16;0.30;;;0.20;;
68987;SDS011;56038;46.080;11.116;2023-02-04T12:41:17;0.57;;;0.45;;
68987;SDS011;56038;46.080;11.116;2023-02-04T12:46:21;0.20;;;0.10;;
68987;SDS011;56038;46.080;11.116;2023-02-04T12:51:23;0.17;;;0.10;;
68987;SDS011;56038;46.080;11.116;2023-02-04T12:56:25;0.10;;;0.10;;
68987;SDS011;56038;46.080;11.116;2023-02-04T13:01:28;0.38;;;0.10;;
68987;SDS011;56038;46.080;11.116;2023-02-04T13:06:30;0.30;;;0.10;;
68987;SDS011;56038;46.080;11.116;2023-02-04T13:11:31;0.47;;;0.10;;
68987;SDS011;56038;46.080;11.116;2023-02-04T13:16:35;0.20;;;0.00;;
68987;SDS011;56038;46.080;11.116;2023-02-04T13:21:37;0.15;;;0.15;;
68987;SDS011;56038;46.080;11.116;2023-02-04T13:26:38;0.10;;;0.10;;
68987;SDS011;56038;46.080;11.116;2023-02-04T13:31:42;0.00;;;0.00;;
68987;SDS011;56038;46.080;11.116;2023-02-04T13:36:43;0.28;;;0.10;;
68987;SDS011;56038;46.080;11.116;2023-02-04T13:41:45;0.10;;;0.00;;
68987;SDS011;56038;46.080;11.116;2023-02-04T13:46:48;0.00;;;0.00;;
68987;SDS011;56038;46.080;11.116;2023-02-04T13:51:51;2.17;;;0.30;;
68987;SDS011;56038;46.080;11.116;2023-02-04T13:56:52;0.28;;;0.10;;
68987;SDS011;56038;46.080;11.116;2023-02-04T14:01:56;0.32;;;0.00;;
68987;SDS011;56038;46.080;11.116;2023-02-04T14:06:57;0.00;;;0.00;;
68987;SDS011;56038;46.080;11.116;2023-02-04T14:11:59;0.10;;;0.10;;
68987;SDS011;56038;46.080;11.116;2023-02-04T14:17:02;0.10;;;0.10;;
68987;SDS011;56038;46.080;11.116;2023-02-04T14:22:04;2.83;;;0.30;;
68987;SDS011;56038;46.080;11.116;2023-02-04T14:27:06;0.10;;;0.10;;
68987;SDS011;56038;46.080;11.116;2023-02-04T14:32:10;0.80;;;0.22;;
68987;SDS011;56038;46.080;11.116;2023-02-04T14:37:11;2.15;;;0.17;;
68987;SDS011;56038;46.080;11.116;2023-02-04T14:42:13;0.10;;;0.10;;
68987;SDS011;56038;46.080;11.116;2023-02-04T14:47:16;0.68;;;0.10;;
68987;SDS011;56038;46.080;11.116;2023-02-04T14:52:18;0.98;;;0.17;;
68987;SDS011;56038;46.080;11.116;2023-02-04T14:57:20;0.10;;;0.10;;
68987;SDS011;56038;46.080;11.116;2023-02-04T15:02:25;0.10;;;0.10;;
68987;SDS011;56038;46.080;11.116;2023-02-04T15:07:27;0.20;;;0.10;;
68987;SDS011;56038;46.080;11.116;2023-02-04T15:12:29;0.10;;;0.10;;
68987;SDS011;56038;46.080;11.116;2023-02-04T15:17:32;0.75;;;0.20;;
68987;SDS011;56038;46.080;11.116;2023-02-04T15:22:34;0.10;;;0.10;;
68987;SDS011;56038;46.080;11.116;2023-02-04T15:27:35;0.30;;;0.20;;
68987;SDS011;56038;46.080;11.116;2023-02-04T15:32:38;0.10;;;0.10;;
68987;SDS011;56038;46.080;11.116;2023-02-04T15:37:41;0.53;;;0.10;;
68987;SDS011;56038;46.080;11.116;2023-02-04T15:42:43;0.40;;;0.20;;
68987;SDS011;56038;46.080;11.116;2023-02-04T15:47:46;0.10;;;0.10;;
68987;SDS011;56038;46.080;11.116;2023-02-04T15:52:49;1.08;;;0.20;;
68987;SDS011;56038;46.080;11.116;2023-02-04T15:57:51;0.70;;;0.20;;
68987;SDS011;56038;46.080;11.116;2023-02-04T16:02:54;1.40;;;0.28;;
68987;SDS011;56038;46.080;11.116;2023-02-04T16:07:56;0.70;;;0.57;;
68987;SDS011;56038;46.080;11.116;2023-02-04T16:12:58;1.38;;;0.30;;
68987;SDS011;56038;46.080;11.116;2023-02-04T16:18:01;0.95;;;0.40;;
68987;SDS011;56038;46.080;11.116;2023-02-04T16:23:03;0.75;;;0.30;;
68987;SDS011;56038;46.080;11.116;2023-02-04T16:28:06;0.63;;;0.45;;
68987;SDS011;56038;46.080;11.116;2023-02-04T16:33:09;1.20;;;0.63;;
68987;SDS011;56038;46.080;11.116;2023-02-04T16:38:11;0.57;;;0.40;;
68987;SDS011;56038;46.080;11.116;2023-02-04T16:43:17;0.45;;;0.45;;
68987;SDS011;56038;46.080;11.116;2023-02-04T16:48:20;0.30;;;0.30;;
68987;SDS011;56038;46.080;11.116;2023-02-04T16:53:22;0.52;;;0.30;;
68987;SDS011;56038;46.080;11.116;2023-02-04T16:58:24;0.40;;;0.40;;
68987;SDS011;56038;46.080;11.116;2023-02-04T17:03:27;0.50;;;0.50;;
68987;SDS011;56038;46.080;11.116;2023-02-04T17:08:29;0.30;;;0.30;;
68987;SDS011;56038;46.080;11.116;2023-02-04T17:13:33;0.43;;;0.38;;
68987;SDS011;56038;46.080;11.116;2023-02-04T17:18:36;0.32;;;0.30;;
68987;SDS011;56038;46.080;11.116;2023-02-04T17:23:39;0.88;;;0.88;;
68987;SDS011;56038;46.080;11.116;2023-02-04T17:28:41;0.40;;;0.40;;
68987;SDS011;56038;46.080;11.116;2023-02-04T17:33:44;4.13;;;0.95;;
68987;SDS011;56038;46.080;11.116;2023-02-04T17:38:46;0.80;;;0.80;;
68987;SDS011;56038;46.080;11.116;2023-02-04T17:43:48;1.83;;;1.50;;
68987;SDS011;56038;46.080;11.116;2023-02-04T17:48:51;2.13;;;1.40;;
68987;SDS011;56038;46.080;11.116;2023-02-04T17:53:53;2.67;;;1.17;;
68987;SDS011;56038;46.080;11.116;2023-02-04T17:58:55;2.20;;;1.63;;
68987;SDS011;56038;46.080;11.116;2023-02-04T18:03:58;2.28;;;1.90;;
68987;SDS011;56038;46.080;11.116;2023-02-04T18:09:00;2.53;;;1.20;;
68987;SDS011;56038;46.080;11.116;2023-02-04T18:14:06;0.88;;;0.88;;
68987;SDS011;56038;46.080;11.116;2023-02-04T18:19:16;2.38;;;1.10;;
68987;SDS011;56038;46.080;11.116;2023-02-04T18:24:21;2.65;;;1.55;;
68987;SDS011;56038;46.080;11.116;2023-02-04T18:29:31;2.47;;;0.80;;
68987;SDS011;56038;46.080;11.116;2023-02-04T18:34:37;2.03;;;1.00;;
68987;SDS011;56038;46.080;11.116;2023-02-04T18:39:41;2.25;;;1.30;;
68987;SDS011;56038;46.080;11.116;2023-02-04T18:44:42;7.60;;;3.92;;
68987;SDS011;56038;46.080;11.116;2023-02-04T18:49:46;1.80;;;1.20;;
68987;SDS011;56038;46.080;11.116;2023-02-04T18:54:49;1.42;;;1.05;;
68987;SDS011;56038;46.080;11.116;2023-02-04T18:59:52;2.95;;;1.83;;
68987;SDS011;56038;46.080;11.116;2023-02-04T19:04:55;2.45;;;1.70;;
68987;SDS011;56038;46.080;11.116;2023-02-04T19:09:58;1.98;;;1.20;;
68987;SDS011;56038;46.080;11.116;2023-02-04T19:15:02;1.75;;;1.50;;
68987;SDS011;56038;46.080;11.116;2023-02-04T19:20:31;2.25;;;1.75;;
68987;SDS011;56038;46.080;11.116;2023-02-04T19:25:33;1.70;;;1.10;;
68987;SDS011;56038;46.080;11.116;2023-02-04T19:30:44;1.48;;;1.15;;
68987;SDS011;56038;46.080;11.116;2023-02-04T19:35:48;2.88;;;1.40;;
68987;SDS011;56038;46.080;11.116;2023-02-04T19:40:50;2.22;;;1.73;;
68987;SDS011;56038;46.080;11.116;2023-02-04T19:45:52;2.67;;;1.30;;
68987;SDS011;56038;46.080;11.116;2023-02-04T19:50:56;1.48;;;1.23;;
68987;SDS011;56038;46.080;11.116;2023-02-04T19:55:58;2.00;;;1.33;;
68987;SDS011;56038;46.080;11.116;2023-02-04T20:01:00;1.08;;;1.00;;
68987;SDS011;56038;46.080;11.116;2023-02-04T20:06:21;2.22;;;2.03;;
68987;SDS011;56038;46.080;11.116;2023-02-04T20:11:37;1.05;;;0.82;;
68987;SDS011;56038;46.080;11.116;2023-02-04T20:16:46;1.38;;;0.88;;
68987;SDS011;56038;46.080;11.116;2023-02-04T20:27:00;1.73;;;0.70;;
68987;SDS011;56038;46.080;11.116;2023-02-04T20:32:13;1.00;;;0.80;;
68987;SDS011;56038;46.080;11.116;2023-02-04T20:37:22;0.88;;;0.80;;
68987;SDS011;56038;46.080;11.116;2023-02-04T20:42:28;1.05;;;0.80;;
68987;SDS011;56038;46.080;11.116;2023-02-04T20:47:40;0.82;;;0.68;;
68987;SDS011;56038;46.080;11.116;2023-02-04T20:53:03;1.08;;;0.55;;
68987;SDS011;56038;46.080;11.116;2023-02-04T20:58:14;0.43;;;0.43;;
68987;SDS011;56038;46.080;11.116;2023-02-04T21:03:21;2.20;;;0.80;;
68987;SDS011;56038;46.080;11.116;2023-02-04T21:08:34;1.40;;;1.00;;
68987;SDS011;56038;46.080;11.116;2023-02-04T21:13:43;1.00;;;0.90;;
68987;SDS011;56038;46.080;11.116;2023-02-04T21:18:45;1.02;;;0.95;;
68987;SDS011;56038;46.080;11.116;2023-02-04T21:23:48;0.68;;;0.68;;
68987;SDS011;56038;46.080;11.116;2023-02-04T21:28:50;1.48;;;0.90;;
68987;SDS011;56038;46.080;11.116;2023-02-04T21:33:52;0.80;;;0.70;;
68987;SDS011;56038;46.080;11.116;2023-02-04T21:38:55;6.28;;;4.32;;
68987;SDS011;56038;46.080;11.116;2023-02-04T21:43:58;36.28;;;17.45;;
68987;SDS011;56038;46.080;11.116;2023-02-04T21:48:59;60.97;;;31.20;;
68987;SDS011;56038;46.080;11.116;2023-02-04T21:54:04;89.47;;;41.42;;
68987;SDS011;56038;46.080;11.116;2023-02-04T21:59:06;92.53;;;43.28;;
68987;SDS011;56038;46.080;11.116;2023-02-04T22:04:07;97.97;;;48.67;;
68987;SDS011;56038;46.080;11.116;2023-02-04T22:09:11;107.63;;;47.63;;
68987;SDS011;56038;46.080;11.116;2023-02-04T22:14:12;91.22;;;42.55;;
68987;SDS011;56038;46.080;11.116;2023-02-04T22:19:31;97.28;;;45.70;;
68987;SDS011;56038;46.080;11.116;2023-02-04T22:24:34;85.65;;;38.97;;
68987;SDS011;56038;46.080;11.116;2023-02-04T22:29:36;82.90;;;39.10;;
68987;SDS011;56038;46.080;11.116;2023-02-04T22:34:38;112.05;;;48.72;;
68987;SDS011;56038;46.080;11.116;2023-02-04T22:39:41;93.47;;;44.42;;
68987;SDS011;56038;46.080;11.116;2023-02-04T22:44:43;86.88;;;41.35;;
68987;SDS011;56038;46.080;11.116;2023-02-04T22:49:46;83.10;;;39.50;;
68987;SDS011;56038;46.080;11.116;2023-02-04T22:54:49;79.22;;;35.42;;
68987;SDS011;56038;46.080;11.116;2023-02-04T22:59:51;80.05;;;39.25;;
68987;SDS011;56038;46.080;11.116;2023-02-04T23:04:52;91.03;;;38.17;;
68987;SDS011;56038;46.080;11.116;2023-02-04T23:09:55;74.97;;;35.55;;
68987;SDS011;56038;46.080;11.116;2023-02-04T23:14:57;72.53;;;34.97;;
68987;SDS011;56038;46.080;11.116;2023-02-04T23:19:59;73.65;;;33.33;;
68987;SDS011;56038;46.080;11.116;2023-02-04T23:25:02;49.50;;;23.75;;
68987;SDS011;56038;46.080;11.116;2023-02-04T23:30:05;43.47;;;21.48;;
68987;SDS011;56038;46.080;11.116;2023-02-04T23:35:09;33.92;;;17.30;;
68987;SDS011;56038;46.080;11.116;2023-02-04T23:40:12;33.13;;;16.25;;
68987;SDS011;56038;46.080;11.116;2023-02-04T23:45:14;32.63;;;16.02;;
68987;SDS011;56038;46.080;11.116;2023-02-04T23:50:17;40.17;;;18.77;;
68987;SDS011;56038;46.080;11.116;2023-02-04T23:55:20;36.80;;;18.40;;
